KJAX/JAX METAR and TAF weather

Enter ICAO airport designator
Station Type Date Time Source
KJAX METAR 2021/02/27 20:56 UTC NOAA

KJAX 272056Z 11010KT 10SM FEW055 SCT080 BKN250 28/19 A3015 RMK AO2 SLP209 T02780189 56015


Station Type Date Time Source
KJAX Decoded METAR 2021/02/27 20:56 UTC NOAA

JACKSONVILLE INTERNATIONAL, FL, United States (KJAX) 30-30N 81-42W 7M
Feb 27, 2021 - 03:56 PM EST / 2021.02.27 2056 UTC
Wind: from the ESE (110 degrees) at 12 MPH (10 KT):0
Visibility: 10 mile(s):0
Sky conditions: mostly cloudy
Temperature: 82.0 F (27.8 C)
Dew Point: 66.0 F (18.9 C)
Relative Humidity: 58%
Pressure (altimeter): 30.15 in. Hg (1020 hPa)
Pressure tendency: 0.04 inches (1.5 hPa) lower than three hours ago
ob: KJAX 272056Z 11010KT 10SM FEW055 SCT080 BKN250 28/19 A3015 RMK AO2 SLP209 T02780189 56015
cycle: 21

Station Type Date Time Source
KJAX TAF 2021/02/27 18:33 UTC NOAA

TAF KJAX 271731Z 2718/2818 15010KT P6SM SCT040 SCT070 BKN200
FM280100 15005KT P6SM FEW040 SCT200
FM281000 16002KT 5SM BR SCT005
FM281500 19010KT P6SM SCT030 BKN200

Example: see airport list